This is the latest recevied weather packets stored in our database for station/object K1BWE-1. If no packets are shown the sender has not sent any weather packets the latest 1 day(s).
| Time | Temp. | Humidity | Pressure | Rain* | Wind** | Luminosity | Snow |
|---|---|---|---|---|---|---|---|
| 1778014750 | 20.56° C | 49% | 1012.8 hPa | 0 mm | 2.68 m/s, 252° | 145 W/m² | - |
| 1778014449 | 20° C | 52% | 1012.8 hPa | 0 mm | 2.24 m/s, 266° | 804 W/m² | - |
| 1778014145 | 20° C | 51% | 1012.9 hPa | 0 mm | 3.58 m/s, 268° | 153 W/m² | - |
| 1778013843 | 20.56° C | 51% | 1012.8 hPa | 0 mm | 2.68 m/s, 257° | 150 W/m² | - |
| 1778013540 | 21.67° C | 48% | 1012.7 hPa | 0 mm | 2.68 m/s, 225° | 189 W/m² | - |
| 1778013236 | 21.11° C | 49% | 1012.8 hPa | 0 mm | 1.79 m/s, 218° | 853 W/m² | - |
| 1778012933 | 21.67° C | 46% | 1012.7 hPa | 0 mm | 3.13 m/s, 214° | 212 W/m² | - |
| 1778012629 | 22.78° C | 43% | 1012.5 hPa | 0 mm | 2.24 m/s, 216° | 190 W/m² | - |
| 1778012326 | 22.22° C | 44% | 1012.9 hPa | 0 mm | 2.68 m/s, 281° | 840 W/m² | - |
| 1778012023 | 21.67° C | 50% | 1013 hPa | 0 mm | 1.34 m/s, 159° | 819 W/m² | - |
| 1778011721 | 21.67° C | 45% | 1012.7 hPa | 0 mm | 2.24 m/s, 294° | 818 W/m² | - |
| 1778011418 | 21.67° C | 51% | 1013.1 hPa | 0 mm | 1.34 m/s, 275° | 776 W/m² | - |
| 1778011113 | 21.11° C | 53% | 1012.9 hPa | 0 mm | 0.45 m/s, 163° | 517 W/m² | - |
| 1778010811 | 21.11° C | 52% | 1013.1 hPa | 0 mm | 1.79 m/s, 192° | 847 W/m² | - |
| 1778010508 | 19.44° C | 57% | 1013.2 hPa | 0 mm | 1.34 m/s, 232° | 819 W/m² | - |
| 1778010205 | 20° C | 58% | 1013.3 hPa | 0 mm | 2.24 m/s, 277° | 103 W/m² | - |
| 1778009900 | 20.56° C | 52% | 1013 hPa | 0 mm | 2.68 m/s, 255° | 249 W/m² | - |
| 1778009598 | 20° C | 56% | 1013.3 hPa | 0 mm | 2.68 m/s, 265° | 478 W/m² | - |
| 1778009296 | 20.56° C | 55% | 1013.2 hPa | 0 mm | 1.79 m/s, 293° | 230 W/m² | - |
| 1778008994 | 20.56° C | 55% | 1013 hPa | 0 mm | 0.89 m/s, 271° | 314 W/m² | - |
| 1778008691 | 21.67° C | 53% | 1013.2 hPa | 0 mm | 0.45 m/s, 66° | 870 W/m² | - |
| 1778008390 | 20.56° C | 56% | 1013.3 hPa | 0 mm | 0 m/s | 851 W/m² | - |
| 1778008086 | 20.56° C | 59% | 1013.6 hPa | 0 mm | 0 m/s | 884 W/m² | - |
| 1778007781 | 20° C | 57% | 1013.7 hPa | 0 mm | 0.45 m/s, 250° | 252 W/m² | - |
| 1778007477 | 19.44° C | 57% | 1013.8 hPa | 0 mm | 1.34 m/s, 235° | 856 W/m² | - |
* Rain latest hour (hover to see other rain measurements)
** Current wind speed in m/s (hover to see current wind gust speed)